TimeEST,TemperatureF,Dew PointF,Humidity,Sea Level PressureIn,VisibilityMPH,Wind Direction,Wind SpeedMPH,Gust SpeedMPH,PrecipitationIn,Events,Conditions,WindDirDegrees,DateUTC
12:51 AM,39.9,21.9,49,30.47,10.0,ESE,10.4,-,N/A,,Clear,110,2012-11-18 05:51:00
1:51 AM,39.9,21.0,47,30.45,10.0,East,9.2,-,N/A,,Clear,100,2012-11-18 06:51:00
2:51 AM,39.0,21.0,49,30.47,10.0,East,6.9,-,N/A,,Clear,100,2012-11-18 07:51:00
3:51 AM,37.0,19.9,50,30.48,10.0,ESE,8.1,-,N/A,,Clear,110,2012-11-18 08:51:00
4:51 AM,37.9,19.9,48,30.48,10.0,ESE,9.2,-,N/A,,Clear,110,2012-11-18 09:51:00
5:51 AM,36.0,25.0,64,30.51,10.0,ESE,9.2,-,N/A,,Clear,120,2012-11-18 10:51:00
6:51 AM,37.9,28.9,70,30.51,10.0,ESE,12.7,19.6,N/A,,Clear,120,2012-11-18 11:51:00
7:51 AM,39.0,30.0,70,30.53,10.0,ESE,10.4,-,N/A,,Clear,120,2012-11-18 12:51:00
8:51 AM,42.1,32.0,67,30.52,10.0,ESE,11.5,21.9,N/A,,Clear,120,2012-11-18 13:51:00
9:51 AM,44.1,33.1,65,30.52,10.0,ESE,17.3,24.2,N/A,,Clear,120,2012-11-18 14:51:00
10:51 AM,46.0,33.1,61,30.51,10.0,SSE,15.0,26.5,N/A,,Clear,160,2012-11-18 15:51:00
11:51 AM,48.0,33.1,56,30.49,10.0,SE,11.5,-,N/A,,Clear,130,2012-11-18 16:51:00
12:51 PM,50.0,33.1,52,30.46,10.0,ESE,9.2,-,N/A,,Clear,120,2012-11-18 17:51:00
1:51 PM,51.1,33.1,50,30.43,10.0,SSE,9.2,-,N/A,,Clear,150,2012-11-18 18:51:00
2:51 PM,52.0,33.1,49,30.42,10.0,ESE,5.8,-,N/A,,Clear,120,2012-11-18 19:51:00
3:51 PM,52.0,33.1,49,30.43,10.0,Variable,4.6,-,N/A,,Clear,0,2012-11-18 20:51:00
4:51 PM,48.9,33.1,54,30.44,10.0,SE,4.6,-,N/A,,Clear,140,2012-11-18 21:51:00
5:51 PM,45.0,32.0,60,30.46,10.0,ESE,4.6,-,N/A,,Clear,120,2012-11-18 22:51:00
6:51 PM,44.1,30.9,60,30.47,10.0,SE,4.6,-,N/A,,Clear,130,2012-11-18 23:51:00
7:51 PM,43.0,30.0,60,30.47,10.0,ESE,4.6,-,N/A,,Clear,120,2012-11-19 00:51:00
8:51 PM,41.0,28.9,62,30.46,10.0,ESE,3.5,-,N/A,,Clear,120,2012-11-19 01:51:00
9:51 PM,42.1,28.0,58,30.45,10.0,ESE,3.5,-,N/A,,Clear,120,2012-11-19 02:51:00
10:51 PM,41.0,27.0,57,30.43,10.0,SSE,5.8,-,N/A,,Clear,150,2012-11-19 03:51:00
11:51 PM,39.9,27.0,60,30.42,10.0,ESE,3.5,-,N/A,,Clear,110,2012-11-19 04:51:00